Time;durP1;ratioP1;P1;durP2;ratioP2;P2;SDS_P1;SDS_P2;PMS_P1;PMS_P2;Temp;Humidity;BMP_temperature;BMP_pressure;BME280_temperature;BME280_humidity;BME280_pressure;Samples;Min_cycle;Max_cycle;Signal;HPM_P1;HPM_P2
2024/01/26 00:02:01;;;;;;;70.15;33.50;;;8.90;99.90;;;;;;5082639;28;20611;-65
2024/01/26 00:04:27;;;;;;;70.60;31.60;;;9.00;99.90;;;;;;5091473;28;20142;-65
2024/01/26 00:06:53;;;;;;;65.18;30.15;;;9.00;99.90;;;;;;5087558;28;20199;-65
2024/01/26 00:09:18;;;;;;;70.15;32.00;;;9.10;99.90;;;;;;5086157;28;20035;-65
2024/01/26 00:11:44;;;;;;;67.30;32.10;;;9.10;99.90;;;;;;5120681;27;20036;-65
2024/01/26 00:14:09;;;;;;;69.35;32.50;;;9.10;99.90;;;;;;5087702;28;20081;-65
2024/01/26 00:16:37;;;;;;;67.13;32.70;;;9.10;99.90;;;;;;5088684;28;20082;-65
2024/01/26 00:19:04;;;;;;;68.72;31.98;;;9.10;99.90;;;;;;5084784;28;20078;-65
2024/01/26 00:21:29;;;;;;;68.03;32.83;;;9.20;99.90;;;;;;5092415;28;20616;-65
2024/01/26 00:24:14;;;;;;;69.03;33.85;;;9.20;99.90;;;;;;5089310;28;20059;-65
2024/01/26 00:26:40;;;;;;;68.47;33.95;;;9.20;99.90;;;;;;5091266;28;20725;-65
2024/01/26 00:29:06;;;;;;;64.78;31.98;;;9.20;99.90;;;;;;5090418;28;20043;-65
2024/01/26 00:31:32;;;;;;;66.78;32.30;;;9.20;99.90;;;;;;5087119;28;20543;-65
2024/01/26 00:33:58;;;;;;;62.70;32.30;;;9.30;99.90;;;;;;5091775;28;20028;-65
2024/01/26 00:36:23;;;;;;;62.67;31.50;;;9.20;99.90;;;;;;5085343;28;20470;-65
2024/01/26 00:38:49;;;;;;;58.50;31.20;;;9.30;99.90;;;;;;5089008;28;20082;-65
2024/01/26 00:41:14;;;;;;;61.75;31.15;;;9.30;99.90;;;;;;5091276;28;20127;-65
2024/01/26 00:43:40;;;;;;;57.70;30.02;;;9.30;99.90;;;;;;5092571;28;20032;-65
2024/01/26 00:46:05;;;;;;;56.45;29.50;;;9.30;99.90;;;;;;5118817;27;20040;-65
2024/01/26 00:48:31;;;;;;;56.75;31.20;;;9.30;99.90;;;;;;5089010;28;20036;-65
2024/01/26 00:50:57;;;;;;;52.70;29.63;;;9.40;99.90;;;;;;5122889;27;20035;-65
2024/01/26 00:53:23;;;;;;;52.17;29.55;;;9.40;99.90;;;;;;5085815;28;20411;-65
2024/01/26 00:55:49;;;;;;;55.55;30.02;;;9.30;99.90;;;;;;5086875;28;20115;-65
2024/01/26 00:58:15;;;;;;;53.83;28.30;;;9.40;99.90;;;;;;5095205;28;20856;-65
2024/01/26 01:00:41;;;;;;;50.88;30.33;;;9.40;99.90;;;;;;5089400;28;20078;-65
2024/01/26 01:03:06;;;;;;;49.13;27.92;;;9.40;99.90;;;;;;5092611;28;20076;-65
2024/01/26 01:05:32;;;;;;;50.08;29.27;;;9.40;99.90;;;;;;5087953;28;20072;-65
2024/01/26 01:07:57;;;;;;;52.50;29.90;;;9.40;99.90;;;;;;5087790;28;20051;-65
2024/01/26 01:10:23;;;;;;;50.47;28.20;;;9.50;99.90;;;;;;5088405;28;20044;-65
2024/01/26 01:12:49;;;;;;;45.88;28.15;;;9.50;99.90;;;;;;5090470;28;20035;-65
2024/01/26 01:15:17;;;;;;;50.75;28.90;;;9.50;99.90;;;;;;5086964;28;20051;-65
2024/01/26 01:17:43;;;;;;;46.95;28.35;;;9.50;99.90;;;;;;5075120;28;20119;-65
2024/01/26 01:20:10;;;;;;;44.20;28.73;;;9.50;99.90;;;;;;5086306;28;20093;-65
2024/01/26 01:22:37;;;;;;;43.90;27.80;;;9.50;99.90;;;;;;5120535;27;20040;-65
2024/01/26 01:25:04;;;;;;;45.58;28.67;;;9.60;99.90;;;;;;5088884;28;20065;-65
2024/01/26 01:27:31;;;;;;;43.25;27.48;;;9.50;99.90;;;;;;5088403;28;20114;-65
2024/01/26 01:29:57;;;;;;;49.85;29.60;;;9.50;99.90;;;;;;5085554;28;20055;-65
2024/01/26 01:32:23;;;;;;;46.30;29.33;;;9.50;99.90;;;;;;5086490;28;20382;-65
2024/01/26 01:34:52;;;;;;;47.75;28.95;;;9.50;99.90;;;;;;5085861;28;20124;-65
2024/01/26 01:37:18;;;;;;;41.60;27.33;;;9.50;99.90;;;;;;5083502;28;20044;-65
2024/01/26 01:39:43;;;;;;;45.42;28.30;;;9.50;99.90;;;;;;5085898;28;20032;-65
2024/01/26 01:42:15;;;;;;;46.88;29.20;;;9.50;99.90;;;;;;5084865;28;20047;-65
2024/01/26 01:44:42;;;;;;;45.50;29.60;;;9.50;99.90;;;;;;5087725;28;20121;-65
2024/01/26 01:47:12;;;;;;;45.28;28.88;;;9.50;99.90;;;;;;5068958;28;20093;-65
2024/01/26 01:49:38;;;;;;;44.20;29.00;;;9.50;99.90;;;;;;5085664;28;20108;-65
2024/01/26 01:52:07;;;;;;;47.25;30.17;;;9.50;99.90;;;;;;5083247;28;20049;-65
2024/01/26 01:54:33;;;;;;;43.10;28.63;;;9.50;99.90;;;;;;5077419;28;20641;-65
2024/01/26 01:57:02;;;;;;;39.55;26.95;;;9.50;99.90;;;;;;5086971;28;20036;-65
2024/01/26 01:59:28;;;;;;;38.53;26.08;;;9.50;99.90;;;;;;5086435;28;20551;-65
2024/01/26 02:01:54;;;;;;;42.28;28.00;;;9.50;99.90;;;;;;5088825;28;20503;-65
2024/01/26 02:04:20;;;;;;;39.75;25.73;;;9.50;99.90;;;;;;5086137;28;20119;-65
2024/01/26 02:06:56;;;;;;;34.72;23.67;;;9.50;99.90;;;;;;5083352;28;20064;-65
2024/01/26 02:09:22;;;;;;;34.85;24.05;;;9.60;99.90;;;;;;5085232;28;20643;-65
2024/01/26 02:11:48;;;;;;;35.38;23.10;;;9.60;99.90;;;;;;5090695;28;20041;-65
2024/01/26 02:14:14;;;;;;;32.65;23.42;;;9.60;99.90;;;;;;5085470;28;20033;-65
2024/01/26 02:16:39;;;;;;;29.60;22.95;;;9.60;99.90;;;;;;5085371;28;20431;-65
2024/01/26 02:19:05;;;;;;;32.67;24.20;;;9.60;99.90;;;;;;5115939;27;20055;-65
2024/01/26 02:21:30;;;;;;;30.63;22.95;;;9.60;99.90;;;;;;5088509;28;20063;-65
2024/01/26 02:23:56;;;;;;;30.00;21.83;;;9.50;99.90;;;;;;5069924;28;20133;-65
2024/01/26 02:26:22;;;;;;;28.08;21.85;;;9.60;99.90;;;;;;5083406;28;20040;-65
2024/01/26 02:28:47;;;;;;;30.13;22.33;;;9.60;99.90;;;;;;5088009;28;20501;-65
2024/01/26 02:31:13;;;;;;;27.60;20.63;;;9.70;99.90;;;;;;5083695;28;20032;-65
2024/01/26 02:33:39;;;;;;;24.48;20.45;;;9.60;99.90;;;;;;5083179;28;20036;-65
2024/01/26 02:36:04;;;;;;;24.35;20.00;;;9.60;99.90;;;;;;5085405;28;20032;-65
2024/01/26 02:38:30;;;;;;;26.33;20.75;;;9.60;99.90;;;;;;5086118;28;20501;-65
2024/01/26 02:40:56;;;;;;;24.50;21.05;;;9.60;99.90;;;;;;5086191;28;20096;-65
2024/01/26 02:43:21;;;;;;;25.48;19.80;;;9.60;99.90;;;;;;5094013;28;20032;-65
2024/01/26 02:45:47;;;;;;;24.38;20.15;;;9.60;99.90;;;;;;5086225;28;20036;-65
2024/01/26 02:48:13;;;;;;;23.05;19.45;;;9.60;99.90;;;;;;5091764;28;20024;-65
2024/01/26 02:50:39;;;;;;;22.98;19.75;;;9.60;99.90;;;;;;5087638;28;20028;-65
2024/01/26 02:53:05;;;;;;;22.33;18.85;;;9.60;99.90;;;;;;5118900;27;20371;-65
2024/01/26 02:55:31;;;;;;;22.08;18.52;;;9.60;99.90;;;;;;5090581;28;20031;-65
2024/01/26 02:57:56;;;;;;;20.58;18.17;;;9.60;99.90;;;;;;5087556;28;20209;-65
2024/01/26 03:00:22;;;;;;;21.13;18.30;;;9.60;99.90;;;;;;5087195;28;20056;-65
2024/01/26 03:02:48;;;;;;;21.35;18.58;;;9.60;99.90;;;;;;5091207;28;20052;-65
2024/01/26 03:05:13;;;;;;;23.92;17.27;;;9.60;99.90;;;;;;5087891;28;20169;-65
2024/01/26 03:07:39;;;;;;;19.23;17.23;;;9.60;99.90;;;;;;5087919;28;20371;-65
2024/01/26 03:10:06;;;;;;;21.42;18.30;;;9.70;99.90;;;;;;5088402;28;20112;-65
2024/01/26 03:12:33;;;;;;;22.20;17.23;;;9.70;99.90;;;;;;5091140;28;20025;-65
2024/01/26 03:15:00;;;;;;;19.92;17.48;;;9.70;99.90;;;;;;5089559;28;20035;-65
2024/01/26 03:17:26;;;;;;;19.98;17.88;;;9.70;99.90;;;;;;5090894;28;20039;-65
2024/01/26 03:19:51;;;;;;;18.58;16.63;;;9.70;99.90;;;;;;5087415;28;20044;-65
2024/01/26 03:22:17;;;;;;;20.23;18.13;;;9.70;99.90;;;;;;5085919;28;20045;-65
2024/01/26 03:24:44;;;;;;;18.75;16.02;;;9.70;99.90;;;;;;5092257;28;20044;-65
2024/01/26 03:27:10;;;;;;;17.60;15.80;;;9.70;99.90;;;;;;5092070;28;20708;-65
2024/01/26 03:29:35;;;;;;;21.25;16.77;;;9.70;99.90;;;;;;5085906;28;20040;-65
2024/01/26 03:32:01;;;;;;;18.92;16.35;;;9.70;99.90;;;;;;5089273;28;20156;-65
2024/01/26 03:34:26;;;;;;;17.90;15.82;;;9.70;99.90;;;;;;5123135;27;20361;-65
2024/01/26 03:36:52;;;;;;;19.73;15.48;;;9.70;99.90;;;;;;5089268;28;20055;-65
2024/01/26 03:39:18;;;;;;;18.67;16.10;;;9.70;99.90;;;;;;5084405;28;20068;-65
2024/01/26 03:41:44;;;;;;;20.95;16.60;;;9.80;99.90;;;;;;5089878;28;20041;-65
2024/01/26 03:44:11;;;;;;;18.30;16.27;;;9.80;99.90;;;;;;5088689;28;20092;-65
2024/01/26 03:46:43;;;;;;;19.05;16.50;;;9.80;99.90;;;;;;5087650;28;20491;-65
2024/01/26 03:49:09;;;;;;;19.83;17.10;;;9.80;99.90;;;;;;5088122;28;20051;-65
2024/01/26 03:51:36;;;;;;;19.67;17.02;;;9.80;99.90;;;;;;5088704;28;20397;-65
2024/01/26 03:54:01;;;;;;;18.90;16.90;;;9.90;99.90;;;;;;5088361;28;20028;-66
2024/01/26 03:56:27;;;;;;;18.42;16.40;;;9.90;99.90;;;;;;5087963;28;20127;-65
2024/01/26 03:58:53;;;;;;;19.95;16.25;;;9.90;99.90;;;;;;5086695;28;20044;-65
2024/01/26 04:01:19;;;;;;;21.50;17.30;;;9.90;99.90;;;;;;5087717;28;20159;-65
2024/01/26 04:03:45;;;;;;;22.58;16.85;;;9.90;99.90;;;;;;5083641;28;20055;-65
2024/01/26 04:06:10;;;;;;;21.63;17.50;;;9.90;99.90;;;;;;5086847;28;20036;-65
2024/01/26 04:08:36;;;;;;;21.73;17.23;;;10.00;99.90;;;;;;5083883;28;20040;-65
2024/01/26 04:11:02;;;;;;;20.33;15.60;;;9.90;99.90;;;;;;5089791;28;20028;-65
2024/01/26 04:13:28;;;;;;;23.45;16.65;;;9.90;99.90;;;;;;5087925;28;20071;-65
2024/01/26 04:15:53;;;;;;;17.80;15.45;;;10.00;99.90;;;;;;5089173;28;20036;-65
2024/01/26 04:18:19;;;;;;;19.48;15.80;;;10.00;99.90;;;;;;5087619;28;20788;-65
2024/01/26 04:20:48;;;;;;;18.65;15.18;;;10.00;99.90;;;;;;5087993;28;20032;-65
2024/01/26 04:23:14;;;;;;;19.17;15.15;;;10.00;99.90;;;;;;5087442;28;20066;-65
2024/01/26 04:25:40;;;;;;;18.40;13.93;;;10.10;99.90;;;;;;5123226;27;20528;-65
2024/01/26 04:28:06;;;;;;;18.67;14.77;;;10.10;99.90;;;;;;5085173;28;20063;-65
2024/01/26 04:30:34;;;;;;;19.50;15.50;;;10.20;99.90;;;;;;5114738;27;20086;-65
2024/01/26 04:33:00;;;;;;;17.35;14.82;;;10.10;99.90;;;;;;5087871;28;20058;-65
2024/01/26 04:35:25;;;;;;;17.50;14.45;;;10.10;99.90;;;;;;5088240;28;20036;-65
2024/01/26 04:37:51;;;;;;;16.65;12.98;;;10.20;99.90;;;;;;5083837;28;20044;-65
2024/01/26 04:40:17;;;;;;;16.10;14.30;;;10.20;99.90;;;;;;5089208;28;20439;-65
2024/01/26 04:42:43;;;;;;;17.23;14.05;;;10.20;99.90;;;;;;5087978;28;20122;-65
2024/01/26 04:45:09;;;;;;;15.98;13.68;;;10.30;99.90;;;;;;5085672;28;20039;-65
2024/01/26 04:47:34;;;;;;;18.85;14.38;;;10.20;99.90;;;;;;5089722;28;20056;-65
2024/01/26 04:50:00;;;;;;;19.45;14.27;;;10.20;99.90;;;;;;5084017;28;20036;-65
2024/01/26 04:52:26;;;;;;;16.27;14.23;;;10.30;99.90;;;;;;5087214;28;20515;-65
2024/01/26 04:54:52;;;;;;;17.17;14.82;;;10.30;99.90;;;;;;5085276;28;20097;-65
2024/01/26 04:57:18;;;;;;;19.38;15.38;;;10.30;99.90;;;;;;5087468;28;20066;-65
2024/01/26 04:59:44;;;;;;;18.35;15.52;;;10.30;99.90;;;;;;5116283;27;20079;-65
2024/01/26 05:02:09;;;;;;;16.85;14.88;;;10.40;99.90;;;;;;5086007;28;20085;-65
2024/01/26 05:04:35;;;;;;;16.98;14.80;;;10.40;99.90;;;;;;5086965;28;20049;-65
2024/01/26 05:07:01;;;;;;;17.52;15.43;;;10.40;99.90;;;;;;5086701;28;20040;-65
2024/01/26 05:09:26;;;;;;;16.35;14.48;;;10.40;99.90;;;;;;5085282;28;20044;-65
2024/01/26 05:11:52;;;;;;;17.35;15.65;;;10.40;99.90;;;;;;5084711;28;20047;-65
2024/01/26 05:14:18;;;;;;;18.38;16.35;;;10.50;99.90;;;;;;5085474;28;20169;-65
2024/01/26 05:16:43;;;;;;;19.67;17.40;;;10.40;99.90;;;;;;5074022;28;20031;-65
2024/01/26 05:19:09;;;;;;;18.45;15.90;;;10.50;99.90;;;;;;5085786;28;20032;-65
2024/01/26 05:21:34;;;;;;;19.70;16.67;;;10.50;99.90;;;;;;5085990;28;20079;-65
2024/01/26 05:24:00;;;;;;;18.20;16.23;;;10.60;99.90;;;;;;5086723;28;20092;-65
2024/01/26 05:26:26;;;;;;;18.38;16.30;;;10.50;99.90;;;;;;5087776;28;20066;-66
2024/01/26 05:28:52;;;;;;;17.95;16.23;;;10.50;99.90;;;;;;5084297;28;20051;-65
2024/01/26 05:31:17;;;;;;;19.23;16.30;;;10.60;99.90;;;;;;5088782;28;20035;-65
2024/01/26 05:33:43;;;;;;;18.52;16.58;;;10.60;99.90;;;;;;5084452;28;20485;-65
2024/01/26 05:36:09;;;;;;;17.38;15.50;;;10.60;99.90;;;;;;5085325;28;20072;-65
2024/01/26 05:38:34;;;;;;;16.77;15.18;;;10.70;99.90;;;;;;5080132;28;20047;-65
2024/01/26 05:41:00;;;;;;;16.63;14.98;;;10.60;99.90;;;;;;5083305;28;20039;-65
2024/01/26 05:43:25;;;;;;;17.48;15.57;;;10.70;99.90;;;;;;5084902;28;20499;-65
2024/01/26 05:45:51;;;;;;;16.27;14.57;;;10.70;99.90;;;;;;5084832;28;20061;-65
2024/01/26 05:48:16;;;;;;;14.15;12.77;;;10.70;99.90;;;;;;5082221;28;20048;-65
2024/01/26 05:50:45;;;;;;;15.15;13.55;;;10.60;99.90;;;;;;5083991;28;20117;-65
2024/01/26 05:53:10;;;;;;;15.68;14.00;;;10.60;99.90;;;;;;5083035;28;20044;-66
2024/01/26 05:55:36;;;;;;;15.60;13.93;;;10.70;99.90;;;;;;5081456;28;20039;-66
2024/01/26 05:58:03;;;;;;;16.13;14.63;;;10.70;99.90;;;;;;5077150;28;20043;-65
2024/01/26 06:00:28;;;;;;;15.20;13.70;;;10.70;99.90;;;;;;5078684;28;20066;-66
2024/01/26 06:02:54;;;;;;;15.43;13.82;;;10.70;99.90;;;;;;5086512;28;20214;-66
2024/01/26 06:05:20;;;;;;;20.55;14.82;;;10.70;99.90;;;;;;5090637;28;20035;-65
2024/01/26 06:07:45;;;;;;;16.45;14.82;;;10.70;99.90;;;;;;5087232;28;20489;-65
2024/01/26 06:10:11;;;;;;;17.17;15.45;;;10.70;99.90;;;;;;5088106;28;20121;-66
2024/01/26 06:12:40;;;;;;;16.98;15.25;;;10.70;99.90;;;;;;5084212;28;20043;-65
2024/01/26 06:15:08;;;;;;;15.32;13.82;;;10.70;99.90;;;;;;5083115;28;20035;-65
2024/01/26 06:17:35;;;;;;;16.83;15.20;;;10.70;99.90;;;;;;5086682;28;20043;-66
2024/01/26 06:20:03;;;;;;;16.33;14.63;;;10.70;99.90;;;;;;5087181;28;20047;-66
2024/01/26 06:22:28;;;;;;;17.25;14.80;;;10.70;99.90;;;;;;5087338;28;20089;-66
2024/01/26 06:24:54;;;;;;;16.00;14.50;;;10.70;99.90;;;;;;5091315;28;20039;-66
2024/01/26 06:27:20;;;;;;;16.27;14.55;;;10.70;99.90;;;;;;5090401;28;20051;-65
2024/01/26 06:29:46;;;;;;;14.73;13.23;;;10.70;99.90;;;;;;5087410;28;20054;-65
2024/01/26 06:32:12;;;;;;;15.07;13.35;;;10.70;99.90;;;;;;5071490;28;20398;-65
2024/01/26 06:34:40;;;;;;;15.05;13.43;;;10.70;99.90;;;;;;5088368;28;20044;-65
2024/01/26 06:37:05;;;;;;;15.68;14.07;;;10.70;99.90;;;;;;5085212;28;20061;-65
2024/01/26 06:39:34;;;;;;;14.77;13.27;;;10.70;99.90;;;;;;5085468;28;20040;-66
2024/01/26 06:42:00;;;;;;;13.00;11.70;;;10.80;99.90;;;;;;5090852;28;20036;-65
2024/01/26 06:44:25;;;;;;;14.25;12.48;;;10.80;99.90;;;;;;5090795;28;20654;-65
2024/01/26 06:46:51;;;;;;;14.52;10.90;;;10.80;99.90;;;;;;5091342;28;20031;-65
2024/01/26 06:49:17;;;;;;;12.88;11.50;;;10.80;99.90;;;;;;5087283;28;20120;-66
2024/01/26 06:51:43;;;;;;;12.50;11.20;;;10.80;99.90;;;;;;5125487;27;20041;-65
2024/01/26 06:54:09;;;;;;;11.60;10.40;;;10.90;99.90;;;;;;5088388;28;20064;-65
2024/01/26 06:56:34;;;;;;;12.43;10.90;;;10.80;99.90;;;;;;5121138;27;20082;-65
2024/01/26 06:59:00;;;;;;;11.35;10.18;;;10.80;99.90;;;;;;5085295;28;20071;-66
2024/01/26 07:01:25;;;;;;;14.38;9.95;;;10.80;99.90;;;;;;5069271;28;20044;-65
2024/01/26 07:03:51;;;;;;;11.93;10.57;;;10.80;99.90;;;;;;5088280;28;20028;-65
2024/01/26 07:06:17;;;;;;;11.57;9.57;;;10.80;99.90;;;;;;5084351;28;20040;-65
2024/01/26 07:08:42;;;;;;;9.27;8.18;;;10.80;99.90;;;;;;5088974;28;20505;-66
2024/01/26 07:11:08;;;;;;;9.90;7.72;;;11.00;99.90;;;;;;5086119;28;20166;-66
2024/01/26 07:13:33;;;;;;;9.82;7.65;;;10.90;99.90;;;;;;5086779;28;20040;-66
2024/01/26 07:15:59;;;;;;;7.75;6.95;;;10.90;99.90;;;;;;5087174;28;20037;-66
2024/01/26 07:18:25;;;;;;;7.78;6.85;;;10.90;99.90;;;;;;5105274;27;20101;-66
2024/01/26 07:20:50;;;;;;;9.02;7.68;;;10.90;99.90;;;;;;5087689;28;20461;-66
2024/01/26 07:23:16;;;;;;;6.65;6.03;;;10.90;99.90;;;;;;5087899;28;20074;-66
2024/01/26 07:25:41;;;;;;;7.25;6.53;;;10.90;99.90;;;;;;5089814;28;20034;-66
2024/01/26 07:28:07;;;;;;;6.88;6.13;;;10.90;99.90;;;;;;5118346;27;20044;-66
2024/01/26 07:30:33;;;;;;;6.72;6.13;;;10.90;99.90;;;;;;5086153;28;20090;-66
2024/01/26 07:32:59;;;;;;;6.60;5.97;;;11.10;99.90;;;;;;5091513;28;20482;-66
2024/01/26 07:35:24;;;;;;;6.90;6.05;;;10.90;99.90;;;;;;5084542;28;20122;-66
2024/01/26 07:37:50;;;;;;;6.93;5.78;;;10.90;99.90;;;;;;5092020;28;20048;-66
2024/01/26 07:40:16;;;;;;;5.85;4.85;;;10.90;99.90;;;;;;5088416;28;20044;-66
2024/01/26 07:42:41;;;;;;;5.93;5.28;;;10.90;99.90;;;;;;5093805;28;20039;-66
2024/01/26 07:45:07;;;;;;;6.47;4.93;;;10.90;99.90;;;;;;5076602;28;20032;-65
2024/01/26 07:47:36;;;;;;;5.43;4.80;;;10.90;99.90;;;;;;5087547;28;20432;-66
2024/01/26 07:50:05;;;;;;;6.30;5.70;;;10.90;99.90;;;;;;5090727;28;20043;-66
2024/01/26 07:52:31;;;;;;;6.70;4.90;;;10.90;99.90;;;;;;5086590;28;20059;-66
2024/01/26 07:54:57;;;;;;;5.18;4.68;;;10.90;99.90;;;;;;5091857;28;20028;-66
2024/01/26 07:57:25;;;;;;;5.82;5.32;;;10.90;99.90;;;;;;5086635;28;20039;-66
2024/01/26 07:59:51;;;;;;;4.68;4.18;;;10.90;99.90;;;;;;5090598;28;20040;-66
2024/01/26 08:02:17;;;;;;;4.30;3.90;;;10.90;99.90;;;;;;5085899;28;20028;-66
2024/01/26 08:04:42;;;;;;;7.30;5.00;;;10.90;99.90;;;;;;5086514;28;20033;-66
2024/01/26 08:07:08;;;;;;;4.55;4.15;;;10.90;99.90;;;;;;5085228;28;20043;-66
2024/01/26 08:09:33;;;;;;;6.15;4.60;;;10.90;99.90;;;;;;5086614;28;20046;-66
2024/01/26 08:11:59;;;;;;;4.75;4.30;;;10.90;99.90;;;;;;5084784;28;20032;-66
2024/01/26 08:14:25;;;;;;;4.38;3.97;;;10.90;99.90;;;;;;5088003;28;20494;-66
2024/01/26 08:16:51;;;;;;;5.13;4.72;;;11.00;99.90;;;;;;5083492;28;20028;-66
2024/01/26 08:19:16;;;;;;;4.50;4.10;;;10.90;99.90;;;;;;5114217;27;20486;-66
2024/01/26 08:21:42;;;;;;;4.85;4.38;;;10.90;99.90;;;;;;5094009;28;20085;-66
2024/01/26 08:24:08;;;;;;;5.50;5.03;;;10.90;99.90;;;;;;5083654;28;20083;-66
2024/01/26 08:26:35;;;;;;;5.63;5.15;;;11.00;99.90;;;;;;5078333;28;20510;-66
2024/01/26 08:29:01;;;;;;;7.15;5.65;;;11.00;99.90;;;;;;5082594;28;20040;-66
2024/01/26 08:31:27;;;;;;;6.57;5.95;;;10.90;99.90;;;;;;5080111;28;20093;-66
2024/01/26 08:33:53;;;;;;;7.10;6.40;;;11.00;99.90;;;;;;5076017;28;20428;-66
2024/01/26 08:36:19;;;;;;;8.27;7.15;;;11.00;99.90;;;;;;5081895;28;20044;-66
2024/01/26 08:38:45;;;;;;;7.97;7.28;;;11.20;99.90;;;;;;5077419;28;20043;-66
2024/01/26 08:41:11;;;;;;;7.45;6.75;;;11.20;99.90;;;;;;5075591;28;20054;-66
2024/01/26 08:43:37;;;;;;;8.63;7.88;;;11.00;99.90;;;;;;5062978;28;20044;-66
2024/01/26 08:46:03;;;;;;;9.63;8.35;;;11.10;99.90;;;;;;5082455;28;20028;-66
2024/01/26 08:48:29;;;;;;;8.90;8.07;;;11.00;99.90;;;;;;5075929;28;20409;-66
2024/01/26 08:50:55;;;;;;;9.43;7.75;;;11.00;99.90;;;;;;5079982;28;20048;-66
2024/01/26 08:53:21;;;;;;;12.32;8.50;;;11.00;99.90;;;;;;5109141;27;20036;-66
2024/01/26 08:55:46;;;;;;;8.10;7.30;;;11.10;99.90;;;;;;5082181;28;20067;-66
2024/01/26 08:58:12;;;;;;;8.45;7.65;;;11.10;99.90;;;;;;5081079;28;20047;-66
2024/01/26 09:00:38;;;;;;;9.95;7.22;;;11.10;99.90;;;;;;5082968;28;20038;-66
2024/01/26 09:03:04;;;;;;;10.05;6.57;;;11.10;99.90;;;;;;5079971;28;20497;-66
2024/01/26 09:05:30;;;;;;;9.27;6.78;;;11.10;99.90;;;;;;5080787;28;20028;-66
2024/01/26 09:07:57;;;;;;;10.45;5.97;;;11.20;99.90;;;;;;5082501;28;21274;-66
2024/01/26 09:10:24;;;;;;;11.77;6.13;;;11.20;99.90;;;;;;5076904;28;20048;-66
2024/01/26 09:12:50;;;;;;;11.25;5.50;;;11.20;99.90;;;;;;5080428;28;20443;-66
2024/01/26 09:15:16;;;;;;;11.07;5.35;;;11.10;99.90;;;;;;5111155;27;20037;-66
2024/01/26 09:17:41;;;;;;;8.48;5.28;;;11.10;99.90;;;;;;5098760;27;20496;-66
2024/01/26 09:20:08;;;;;;;10.43;4.30;;;11.10;99.90;;;;;;5079143;28;20043;-66
2024/01/26 09:22:33;;;;;;;8.63;3.42;;;11.00;99.90;;;;;;5072942;28;20621;-66
2024/01/26 09:24:59;;;;;;;4.63;1.30;;;11.00;99.90;;;;;;5076509;28;20136;-66
2024/01/26 09:27:26;;;;;;;2.83;0.50;;;10.90;99.90;;;;;;5081077;28;20101;-66
2024/01/26 09:29:51;;;;;;;5.78;0.90;;;10.60;99.90;;;;;;5079613;28;20048;-66
2024/01/26 09:32:17;;;;;;;5.13;0.98;;;10.40;99.90;;;;;;5081903;28;20043;-66
2024/01/26 09:34:44;;;;;;;3.88;0.60;;;10.30;99.90;;;;;;5076942;28;20051;-66
2024/01/26 09:37:10;;;;;;;2.42;0.38;;;10.20;99.90;;;;;;5062585;28;20047;-66
2024/01/26 09:39:35;;;;;;;4.05;0.60;;;10.00;99.90;;;;;;5109667;27;20048;-66
2024/01/26 09:42:02;;;;;;;7.13;0.60;;;10.00;99.90;;;;;;5081548;28;20075;-66
2024/01/26 09:44:27;;;;;;;3.40;0.30;;;9.90;99.90;;;;;;5080545;28;20044;-66
2024/01/26 09:46:54;;;;;;;6.68;0.60;;;9.80;99.90;;;;;;5081806;28;20044;-66
2024/01/26 09:49:21;;;;;;;2.45;0.47;;;9.80;99.90;;;;;;5075008;28;20105;-66
2024/01/26 09:51:47;;;;;;;8.40;1.08;;;9.80;99.90;;;;;;5078529;28;20782;-66
2024/01/26 09:54:15;;;;;;;5.03;0.95;;;9.70;99.90;;;;;;5067035;28;20074;-66
2024/01/26 09:56:42;;;;;;;4.28;0.63;;;9.70;99.90;;;;;;5108457;27;20036;-66
2024/01/26 09:59:08;;;;;;;5.63;0.50;;;9.60;99.90;;;;;;5065504;28;20035;-65
2024/01/26 10:01:34;;;;;;;10.00;0.93;;;9.50;99.90;;;;;;5092497;28;20082;-66
2024/01/26 10:04:01;;;;;;;6.88;0.80;;;9.60;99.90;;;;;;5083287;28;20520;-66
2024/01/26 10:06:27;;;;;;;4.65;1.02;;;9.50;99.90;;;;;;5080240;28;20397;-66
2024/01/26 10:08:52;;;;;;;6.88;1.45;;;9.50;99.90;;;;;;5080558;28;20044;-66
2024/01/26 10:11:18;;;;;;;6.47;1.58;;;9.50;99.90;;;;;;5079373;28;20036;-66
2024/01/26 10:13:44;;;;;;;5.00;0.93;;;9.50;99.90;;;;;;5078178;28;20036;-66
2024/01/26 10:16:12;;;;;;;8.45;1.85;;;9.40;99.90;;;;;;5110328;27;20028;-65
2024/01/26 10:18:42;;;;;;;6.07;1.17;;;9.30;99.90;;;;;;5083724;28;20394;-65
2024/01/26 10:21:08;;;;;;;13.07;1.70;;;9.30;99.90;;;;;;5080012;28;20048;-66
2024/01/26 10:23:34;;;;;;;9.93;1.25;;;9.30;99.90;;;;;;5080124;28;20033;-66
2024/01/26 10:25:59;;;;;;;12.88;1.50;;;9.20;99.90;;;;;;5080800;28;20039;-66
2024/01/26 10:28:25;;;;;;;10.38;1.50;;;9.20;99.90;;;;;;5077789;28;20044;-66
2024/01/26 10:30:51;;;;;;;8.82;1.40;;;9.10;99.90;;;;;;5076927;28;20071;-67
2024/01/26 10:33:18;;;;;;;13.07;1.92;;;9.20;99.90;;;;;;5109890;27;20138;-66
2024/01/26 10:35:48;;;;;;;12.73;2.22;;;9.00;99.90;;;;;;5074833;28;20036;-66
2024/01/26 10:38:14;;;;;;;18.88;2.67;;;9.10;99.90;;;;;;5077632;28;20044;-66
2024/01/26 10:40:46;;;;;;;15.18;2.35;;;9.00;99.90;;;;;;5081006;28;20097;-66
2024/01/26 10:43:12;;;;;;;9.43;1.83;;;9.00;99.90;;;;;;5078317;28;20055;-66
2024/01/26 10:45:39;;;;;;;13.40;1.85;;;9.00;99.90;;;;;;5105762;27;20044;-66
2024/01/26 10:48:07;;;;;;;13.93;1.77;;;8.90;99.90;;;;;;5074300;28;20398;-66
2024/01/26 10:50:35;;;;;;;16.40;2.40;;;8.90;99.90;;;;;;5073923;28;20048;-66
2024/01/26 10:53:03;;;;;;;11.48;1.63;;;9.10;99.90;;;;;;5077412;28;20394;-66
2024/01/26 10:55:30;;;;;;;12.15;2.33;;;8.90;99.90;;;;;;5107302;27;20605;-66
2024/01/26 10:57:55;;;;;;;11.55;2.60;;;8.90;99.90;;;;;;5075329;28;20200;-66
2024/01/26 11:00:21;;;;;;;13.75;2.55;;;8.90;99.90;;;;;;5075951;28;20452;-66
2024/01/26 11:02:48;;;;;;;13.80;2.55;;;8.90;99.90;;;;;;5105096;27;20052;-66
2024/01/26 11:05:14;;;;;;;12.88;2.33;;;8.90;99.90;;;;;;5081635;28;20048;-66
2024/01/26 11:07:42;;;;;;;14.32;2.45;;;9.10;99.90;;;;;;5080261;28;20044;-66
2024/01/26 11:10:21;;;;;;;11.25;1.80;;;9.00;99.90;;;;;;5081853;28;20486;-66
2024/01/26 11:12:58;;;;;;;13.43;2.30;;;9.00;99.90;;;;;;5079069;28;20128;-66
2024/01/26 11:15:25;;;;;;;15.07;2.80;;;9.00;99.90;;;;;;5079472;28;20105;-66
2024/01/26 11:17:58;;;;;;;15.50;2.15;;;9.00;99.90;;;;;;5076327;28;20056;-66
2024/01/26 11:20:31;;;;;;;13.63;2.97;;;9.00;99.90;;;;;;5079590;28;20509;-66
2024/01/26 11:23:14;;;;;;;14.68;3.15;;;9.00;99.90;;;;;;5079724;28;20056;-66
2024/01/26 11:25:44;;;;;;;13.20;2.10;;;8.90;99.90;;;;;;5077848;28;20052;-66
2024/01/26 11:28:14;;;;;;;17.85;2.55;;;8.90;99.90;;;;;;5080617;28;20048;-66
2024/01/26 11:30:40;;;;;;;18.48;2.75;;;8.90;99.90;;;;;;5078401;28;20223;-66
2024/01/26 11:33:16;;;;;;;15.18;2.70;;;8.80;99.90;;;;;;5078972;28;20096;-66
2024/01/26 11:35:41;;;;;;;17.30;2.83;;;8.80;99.90;;;;;;5078838;28;20044;-66
2024/01/26 11:38:08;;;;;;;18.33;3.33;;;8.90;99.90;;;;;;5082592;28;20059;-66
2024/01/26 11:40:34;;;;;;;10.18;2.50;;;8.80;99.90;;;;;;5078840;28;20047;-66
2024/01/26 11:42:59;;;;;;;11.18;1.95;;;8.80;99.90;;;;;;5080790;28;20051;-66
2024/01/26 11:45:36;;;;;;;17.05;2.78;;;8.80;99.90;;;;;;5082547;28;20582;-66
2024/01/26 11:48:06;;;;;;;18.48;3.78;;;8.80;99.90;;;;;;5079895;28;20097;-67
2024/01/26 11:50:31;;;;;;;12.70;2.60;;;8.80;99.90;;;;;;5079584;28;20082;-66
2024/01/26 11:52:57;;;;;;;16.15;2.25;;;8.80;99.90;;;;;;5078737;28;20498;-66
2024/01/26 11:55:23;;;;;;;18.02;3.25;;;8.80;99.90;;;;;;5078455;28;20091;-66
2024/01/26 11:57:51;;;;;;;17.75;3.53;;;8.70;99.90;;;;;;5110918;27;20131;-66
2024/01/26 12:00:18;;;;;;;16.00;2.78;;;8.70;99.90;;;;;;5079195;28;20062;-66
2024/01/26 12:02:44;;;;;;;13.60;2.20;;;8.70;99.90;;;;;;5080422;28;20520;-66
2024/01/26 12:05:09;;;;;;;17.92;2.53;;;8.90;99.90;;;;;;5081380;28;20048;-66
2024/01/26 12:07:36;;;;;;;16.60;3.45;;;8.60;99.90;;;;;;5077386;28;20040;-66
2024/01/26 12:10:02;;;;;;;18.13;3.22;;;8.60;99.90;;;;;;5076960;28;20450;-66
2024/01/26 12:12:29;;;;;;;16.40;2.80;;;8.60;99.90;;;;;;5108358;27;20045;-66
2024/01/26 12:14:54;;;;;;;14.07;2.95;;;8.50;99.90;;;;;;5077540;28;20089;-66
2024/01/26 12:17:20;;;;;;;17.40;3.40;;;8.50;99.90;;;;;;5074491;28;20041;-66
2024/01/26 12:19:47;;;;;;;22.05;3.67;;;8.60;99.90;;;;;;5073527;28;20097;-66
2024/01/26 12:22:12;;;;;;;14.38;2.63;;;8.50;99.90;;;;;;5073286;28;20047;-66
2024/01/26 12:24:39;;;;;;;12.85;2.83;;;8.50;99.90;;;;;;5070993;28;20040;-66
2024/01/26 12:27:05;;;;;;;15.00;2.78;;;8.50;99.90;;;;;;5079464;28;20055;-66
2024/01/26 12:29:33;;;;;;;15.57;3.05;;;8.50;99.90;;;;;;5106481;27;20527;-66
2024/01/26 12:32:07;;;;;;;15.52;2.83;;;8.50;99.90;;;;;;5077853;28;20537;-66
2024/01/26 12:34:36;;;;;;;15.50;3.20;;;8.50;99.90;;;;;;5077412;28;20623;-66